Time,TemperatureF,DewpointF,PressureIn,WindDirection,WindDirectionDegrees,WindSpeedMPH,WindSpeedGustMPH,Humidity,HourlyPrecipIn,Conditions,Clouds,dailyrainin,SoftwareType,DateUTC
2013-10-17 00:00:00,75.8,72.8,29.95,SE,132,0.0,0.0,90,0.00,,---,0.00,VWS V14.01,2013-10-17 04:00:00,
2013-10-17 00:01:00,74.3,73.4,29.97,NE,48,0.0,0.0,97,0.00,,---,0.00,VWS V14.01,2013-10-17 04:01:00,
2013-10-17 00:02:00,73.6,72.7,29.97,NE,48,0.0,0.0,97,0.00,,---,0.00,VWS V14.01,2013-10-17 04:02:00,
2013-10-17 00:03:00,75.8,72.9,29.94,SE,132,0.0,0.0,91,0.00,,---,0.00,VWS V14.01,2013-10-17 04:03:00,
2013-10-17 00:04:00,75.3,72.5,29.94,SE,132,0.0,0.0,91,0.00,,---,0.00,VWS V14.01,2013-10-17 04:04:00,
2013-10-17 00:05:00,75.8,73.0,29.94,SE,132,0.0,0.0,91,0.00,,---,0.00,VWS V14.01,2013-10-17 04:05:00,
2013-10-17 00:07:00,74.3,73.5,29.96,NE,48,0.0,0.0,97,0.00,,---,0.00,VWS V14.01,2013-10-17 04:07:00,
2013-10-17 00:12:00,74.2,73.4,29.96,NE,48,0.0,0.0,97,0.00,,---,0.00,VWS V14.01,2013-10-17 04:12:00,
2013-10-17 00:17:00,74.1,73.3,29.96,NE,48,0.0,0.0,98,0.00,,---,0.00,VWS V14.01,2013-10-17 04:17:00,
2013-10-17 00:22:00,74.1,73.4,29.96,NE,48,0.0,0.0,98,0.00,,---,0.00,VWS V14.01,2013-10-17 04:22:00,
2013-10-17 00:27:00,73.8,73.1,29.96,NE,48,0.0,0.0,98,0.00,,---,0.00,VWS V14.01,2013-10-17 04:27:00,
2013-10-17 00:32:00,73.5,72.8,29.96,NE,48,0.0,0.0,98,0.00,,---,0.00,VWS V14.01,2013-10-17 04:32:00,
2013-10-17 00:37:00,72.3,71.7,29.95,NE,48,0.0,0.0,98,0.00,,---,0.00,VWS V14.01,2013-10-17 04:37:00,
2013-10-17 00:42:00,73.2,72.7,29.95,NE,48,0.0,0.0,98,0.00,,---,0.00,VWS V14.01,2013-10-17 04:42:00,
2013-10-17 00:47:00,73.6,73.1,29.95,NE,48,0.0,0.0,98,0.00,,---,0.00,VWS V14.01,2013-10-17 04:47:00,
2013-10-17 00:52:00,73.3,72.9,29.95,NE,48,0.0,0.0,98,0.00,,---,0.00,VWS V14.01,2013-10-17 04:52:00,
2013-10-17 00:57:00,72.8,72.4,29.95,NE,48,0.0,0.0,99,0.00,,---,0.00,VWS V14.01,2013-10-17 04:57:00,
2013-10-17 01:02:00,73.3,72.9,29.95,NE,48,0.0,0.0,99,0.00,,---,0.00,VWS V14.01,2013-10-17 05:02:00,
2013-10-17 01:07:00,73.4,73.1,29.95,NE,48,0.0,0.0,99,0.00,,---,0.00,VWS V14.01,2013-10-17 05:07:00,
2013-10-17 01:12:00,72.6,72.3,29.95,NE,48,0.0,0.0,99,0.00,,---,0.00,VWS V14.01,2013-10-17 05:12:00,
2013-10-17 01:17:00,72.5,72.3,29.95,NE,48,0.0,0.0,99,0.00,,---,0.00,VWS V14.01,2013-10-17 05:17:00,
2013-10-17 01:22:00,73.3,73.1,29.95,NE,48,0.0,0.0,99,0.00,,---,0.00,VWS V14.01,2013-10-17 05:22:00,
2013-10-17 01:27:00,72.6,72.4,29.95,NE,48,0.0,0.0,99,0.00,,---,0.00,VWS V14.01,2013-10-17 05:27:00,
2013-10-17 01:32:00,73.1,73.0,29.95,NE,48,0.0,0.0,100,0.00,,---,0.00,VWS V14.01,2013-10-17 05:32:00,
2013-10-17 01:37:00,73.2,73.1,29.95,NE,48,0.0,0.0,100,0.00,,---,0.00,VWS V14.01,2013-10-17 05:37:00,
2013-10-17 01:42:00,73.2,73.2,29.95,NE,48,0.0,0.0,100,0.00,,---,0.00,VWS V14.01,2013-10-17 05:42:00,
2013-10-17 01:47:00,72.7,72.7,29.95,NE,48,0.0,0.0,100,0.00,,---,0.00,VWS V14.01,2013-10-17 05:47:00,
2013-10-17 01:52:00,73.0,73.0,29.95,NE,48,0.0,0.0,100,0.00,,---,0.00,VWS V14.01,2013-10-17 05:52:00,
2013-10-17 01:57:00,72.5,72.5,29.95,NE,48,0.0,0.0,100,0.00,,---,0.00,VWS V14.01,2013-10-17 05:57:00,
2013-10-17 02:02:00,72.6,72.6,29.95,NE,48,0.0,0.0,100,0.00,,---,0.00,VWS V14.01,2013-10-17 06:02:00,
2013-10-17 02:07:00,72.7,72.7,29.95,NE,48,0.0,0.0,100,0.00,,---,0.00,VWS V14.01,2013-10-17 06:07:00,
2013-10-17 02:12:00,72.7,72.7,29.94,NE,48,0.0,0.0,100,0.00,,---,0.00,VWS V14.01,2013-10-17 06:12:00,
2013-10-17 02:17:00,72.5,72.5,29.95,NE,48,0.0,0.0,100,0.00,,---,0.00,VWS V14.01,2013-10-17 06:17:00,
2013-10-17 02:22:00,72.3,72.3,29.95,NE,48,0.0,0.0,100,0.00,,---,0.00,VWS V14.01,2013-10-17 06:22:00,
2013-10-17 02:27:00,71.9,71.9,29.95,NE,48,0.0,0.0,100,0.00,,---,0.00,VWS V14.01,2013-10-17 06:27:00,
2013-10-17 02:32:00,72.4,72.4,29.94,NE,48,0.0,0.0,100,0.00,,---,0.00,VWS V14.01,2013-10-17 06:32:00,
2013-10-17 02:37:00,72.0,72.0,29.94,NE,48,0.0,0.0,100,0.00,,---,0.00,VWS V14.01,2013-10-17 06:37:00,
2013-10-17 02:42:00,71.7,71.7,29.94,NE,48,0.0,0.0,100,0.00,,---,0.00,VWS V14.01,2013-10-17 06:42:00,
2013-10-17 02:47:00,72.1,72.1,29.94,NE,48,0.0,0.0,100,0.00,,---,0.00,VWS V14.01,2013-10-17 06:47:00,
2013-10-17 02:52:00,72.2,72.2,29.94,NE,48,0.0,0.0,100,0.00,,---,0.00,VWS V14.01,2013-10-17 06:52:00,
2013-10-17 02:57:00,72.4,72.4,29.94,NE,48,0.0,0.0,100,0.00,,---,0.00,VWS V14.01,2013-10-17 06:57:00,
2013-10-17 03:02:00,72.1,72.1,29.94,NE,48,0.0,0.0,100,0.00,,---,0.00,VWS V14.01,2013-10-17 07:02:00,
2013-10-17 03:07:00,72.2,72.2,29.94,NE,48,0.0,0.0,100,0.00,,---,0.00,VWS V14.01,2013-10-17 07:07:00,
2013-10-17 03:12:00,71.7,71.7,29.94,NE,48,0.0,0.0,100,0.00,,---,0.00,VWS V14.01,2013-10-17 07:12:00,
2013-10-17 03:17:00,72.4,72.4,29.94,NE,48,0.0,0.0,100,0.00,,---,0.00,VWS V14.01,2013-10-17 07:17:00,
2013-10-17 03:22:00,71.6,71.6,29.94,NE,48,0.0,0.0,100,0.00,,---,0.00,VWS V14.01,2013-10-17 07:22:00,
2013-10-17 03:27:00,72.2,72.2,29.94,NE,48,0.0,0.0,100,0.00,,---,0.00,VWS V14.01,2013-10-17 07:27:00,
2013-10-17 03:32:00,72.3,72.3,29.94,NE,48,0.0,0.0,100,0.00,,---,0.00,VWS V14.01,2013-10-17 07:32:00,
2013-10-17 03:37:00,72.0,72.0,29.94,NE,48,0.0,0.0,100,0.00,,---,0.00,VWS V14.01,2013-10-17 07:37:00,
2013-10-17 03:42:00,71.3,71.3,29.93,NE,48,0.0,0.0,100,0.00,,---,0.00,VWS V14.01,2013-10-17 07:42:00,
2013-10-17 03:47:00,71.8,71.8,29.93,NE,48,0.0,0.0,100,0.00,,---,0.00,VWS V14.01,2013-10-17 07:47:00,
2013-10-17 03:52:00,72.0,72.0,29.93,NE,48,0.0,0.0,100,0.00,,---,0.00,VWS V14.01,2013-10-17 07:52:00,
2013-10-17 03:57:00,71.8,71.8,29.93,NE,48,0.0,0.0,100,0.00,,---,0.00,VWS V14.01,2013-10-17 07:57:00,
2013-10-17 04:02:00,72.6,72.6,29.93,NE,48,0.0,0.0,100,0.00,,---,0.00,VWS V14.01,2013-10-17 08:02:00,
2013-10-17 04:07:00,72.1,72.1,29.93,NE,48,0.0,0.0,100,0.00,,---,0.00,VWS V14.01,2013-10-17 08:07:00,
2013-10-17 04:08:00,72.3,72.3,29.93,NE,48,0.0,0.0,100,0.00,,---,0.00,VWS V14.01,2013-10-17 08:08:00,
2013-10-17 04:13:00,72.2,72.2,29.93,NE,48,0.0,0.0,100,0.00,,---,0.00,VWS V14.01,2013-10-17 08:13:00,
2013-10-17 04:18:00,72.4,72.4,29.93,NE,48,0.0,0.0,100,0.00,,---,0.00,VWS V14.01,2013-10-17 08:18:00,
2013-10-17 04:23:00,72.9,72.9,29.93,NE,48,0.0,0.0,100,0.00,,---,0.00,VWS V14.01,2013-10-17 08:23:00,
2013-10-17 04:28:00,72.5,72.5,29.92,NE,48,0.0,0.0,100,0.00,,---,0.00,VWS V14.01,2013-10-17 08:28:00,
2013-10-17 04:33:00,72.8,72.8,29.93,NE,48,0.0,0.0,100,0.00,,---,0.00,VWS V14.01,2013-10-17 08:33:00,
2013-10-17 04:38:00,73.1,73.1,29.93,NE,48,0.0,0.0,100,0.00,,---,0.00,VWS V14.01,2013-10-17 08:38:00,
2013-10-17 04:43:00,73.0,73.0,29.93,NE,48,0.0,0.0,100,0.00,,---,0.00,VWS V14.01,2013-10-17 08:43:00,
2013-10-17 04:48:00,73.2,73.2,29.93,NE,48,0.0,0.0,100,0.00,,---,0.00,VWS V14.01,2013-10-17 08:48:00,
2013-10-17 04:53:00,72.4,72.4,29.93,NE,48,0.0,0.0,100,0.00,,---,0.00,VWS V14.01,2013-10-17 08:53:00,
2013-10-17 04:58:00,72.1,72.1,29.93,NE,48,0.0,0.0,100,0.00,,---,0.00,VWS V14.01,2013-10-17 08:58:00,
2013-10-17 05:03:00,72.9,72.9,29.93,NE,48,0.0,0.0,100,0.00,,---,0.00,VWS V14.01,2013-10-17 09:03:00,
2013-10-17 05:08:00,72.9,72.9,29.93,NE,48,0.0,0.0,100,0.00,,---,0.00,VWS V14.01,2013-10-17 09:08:00,
2013-10-17 05:13:00,72.6,72.6,29.93,NE,48,0.0,0.0,100,0.00,,---,0.00,VWS V14.01,2013-10-17 09:13:00,
2013-10-17 05:18:00,72.5,72.5,29.93,NE,48,0.0,0.0,100,0.00,,---,0.00,VWS V14.01,2013-10-17 09:18:00,
2013-10-17 05:23:00,72.5,72.5,29.94,NE,48,0.0,0.0,100,0.00,,---,0.00,VWS V14.01,2013-10-17 09:23:00,
2013-10-17 05:28:00,72.2,72.2,29.94,NE,48,0.0,0.0,100,0.00,,---,0.00,VWS V14.01,2013-10-17 09:28:00,
2013-10-17 05:33:00,71.0,71.0,29.94,NE,48,0.0,0.0,100,0.00,,---,0.00,VWS V14.01,2013-10-17 09:33:00,
2013-10-17 05:38:00,72.2,72.2,29.94,NE,48,0.0,0.0,100,0.00,,---,0.00,VWS V14.01,2013-10-17 09:38:00,
2013-10-17 05:43:00,71.1,71.1,29.94,NE,48,0.0,0.0,100,0.00,,---,0.00,VWS V14.01,2013-10-17 09:43:00,
2013-10-17 05:48:00,71.5,71.5,29.94,NE,48,0.0,0.0,100,0.00,,---,0.00,VWS V14.01,2013-10-17 09:48:00,
2013-10-17 05:53:00,71.9,71.9,29.94,NE,48,0.0,0.0,100,0.00,,---,0.00,VWS V14.01,2013-10-17 09:53:00,
2013-10-17 05:58:00,71.7,71.7,29.94,NE,48,0.0,0.0,100,0.00,,---,0.00,VWS V14.01,2013-10-17 09:58:00,
2013-10-17 06:03:00,71.4,71.4,29.94,NE,48,0.0,0.0,100,0.00,,---,0.00,VWS V14.01,2013-10-17 10:03:00,
2013-10-17 06:08:00,71.1,71.1,29.94,NE,48,0.0,0.0,100,0.00,,---,0.00,VWS V14.01,2013-10-17 10:08:00,
2013-10-17 06:13:00,71.1,71.1,29.94,NE,48,0.0,0.0,100,0.00,,---,0.00,VWS V14.01,2013-10-17 10:13:00,
2013-10-17 06:18:00,71.4,71.4,29.95,NE,48,0.0,0.0,100,0.00,,---,0.00,VWS V14.01,2013-10-17 10:18:00,
2013-10-17 06:23:00,71.2,71.2,29.95,NE,48,0.0,0.0,100,0.00,,---,0.00,VWS V14.01,2013-10-17 10:23:00,
2013-10-17 06:28:00,71.2,71.2,29.95,NE,48,0.0,0.0,100,0.00,,---,0.00,VWS V14.01,2013-10-17 10:28:00,
2013-10-17 06:33:00,70.6,70.6,29.95,NE,48,0.0,0.0,100,0.00,,---,0.00,VWS V14.01,2013-10-17 10:33:00,
2013-10-17 06:38:00,70.0,70.0,29.95,NE,48,0.0,0.0,100,0.00,,---,0.00,VWS V14.01,2013-10-17 10:38:00,
2013-10-17 06:43:00,70.7,70.7,29.95,NE,48,0.0,0.0,100,0.00,,---,0.00,VWS V14.01,2013-10-17 10:43:00,
2013-10-17 06:48:00,70.6,70.6,29.95,NE,48,0.0,0.0,100,0.00,,---,0.00,VWS V14.01,2013-10-17 10:48:00,
2013-10-17 06:53:00,70.4,70.4,29.95,NE,48,0.0,0.0,100,0.00,,---,0.00,VWS V14.01,2013-10-17 10:53:00,
2013-10-17 06:58:00,70.8,70.8,29.95,NE,48,0.0,0.0,100,0.00,,---,0.00,VWS V14.01,2013-10-17 10:58:00,
2013-10-17 07:03:00,70.2,70.2,29.95,NE,48,0.0,0.0,100,0.00,,---,0.00,VWS V14.01,2013-10-17 11:03:00,
2013-10-17 07:08:00,70.7,70.7,29.95,NE,48,0.0,0.0,100,0.00,,---,0.00,VWS V14.01,2013-10-17 11:08:00,
2013-10-17 07:13:00,71.4,71.4,29.95,NE,48,0.0,0.0,100,0.00,,---,0.00,VWS V14.01,2013-10-17 11:13:00,
2013-10-17 07:18:00,71.5,71.5,29.96,NE,48,0.0,0.0,100,0.00,,---,0.00,VWS V14.01,2013-10-17 11:18:00,
2013-10-17 07:23:00,71.1,71.1,29.96,NE,48,0.0,0.0,100,0.00,,---,0.00,VWS V14.01,2013-10-17 11:23:00,
2013-10-17 07:28:00,71.2,71.2,29.96,NE,48,0.0,0.0,100,0.00,,---,0.00,VWS V14.01,2013-10-17 11:28:00,
2013-10-17 07:33:00,71.3,71.3,29.96,NE,48,0.0,0.0,100,0.00,,---,0.00,VWS V14.01,2013-10-17 11:33:00,
2013-10-17 07:37:00,71.2,71.2,29.96,NE,48,0.0,0.0,100,0.00,,---,0.00,VWS V14.01,2013-10-17 11:37:00,
2013-10-17 07:42:00,71.3,71.3,29.97,NE,48,0.0,0.0,100,0.00,,---,0.00,VWS V14.01,2013-10-17 11:42:00,
2013-10-17 07:47:00,70.4,70.4,29.97,NE,48,0.0,0.0,100,0.00,,---,0.00,VWS V14.01,2013-10-17 11:47:00,
2013-10-17 07:52:00,70.9,70.9,29.97,NE,48,0.0,0.0,100,0.00,,---,0.00,VWS V14.01,2013-10-17 11:52:00,
2013-10-17 07:57:00,70.2,70.2,29.97,NE,48,0.0,0.0,100,0.00,,---,0.00,VWS V14.01,2013-10-17 11:57:00,
2013-10-17 08:02:00,70.4,70.4,29.97,NE,48,0.0,0.0,100,0.00,,---,0.00,VWS V14.01,2013-10-17 12:02:00,
2013-10-17 08:07:00,70.7,70.7,29.97,NE,48,0.0,0.0,100,0.00,,---,0.00,VWS V14.01,2013-10-17 12:07:00,
2013-10-17 08:12:00,71.6,71.6,29.97,NNE,30,0.0,0.0,100,0.00,,---,0.00,VWS V14.01,2013-10-17 12:12:00,
2013-10-17 08:17:00,71.5,71.5,29.97,NNE,30,0.0,0.0,100,0.00,,---,0.00,VWS V14.01,2013-10-17 12:17:00,
2013-10-17 08:22:00,71.7,71.7,29.97,NNE,30,0.0,0.0,100,0.00,,---,0.00,VWS V14.01,2013-10-17 12:22:00,
2013-10-17 08:27:00,72.0,72.0,29.98,NNE,30,0.0,0.0,100,0.00,,---,0.00,VWS V14.01,2013-10-17 12:27:00,
2013-10-17 08:32:00,71.6,71.6,29.98,NNE,30,0.0,0.0,100,0.00,,---,0.00,VWS V14.01,2013-10-17 12:32:00,
2013-10-17 08:37:00,71.5,71.5,29.98,NNE,18,3.8,5.0,100,0.00,,---,0.00,VWS V14.01,2013-10-17 12:37:00,
2013-10-17 08:42:00,71.2,71.2,29.98,NNE,21,2.2,4.0,100,0.00,,---,0.00,VWS V14.01,2013-10-17 12:42:00,
2013-10-17 08:47:00,71.9,71.9,29.99,NNE,17,0.0,0.0,100,0.00,,---,0.00,VWS V14.01,2013-10-17 12:47:00,
2013-10-17 08:52:00,72.5,72.5,29.99,NNE,17,0.0,0.0,100,0.00,,---,0.00,VWS V14.01,2013-10-17 12:52:00,
2013-10-17 08:57:00,72.4,72.4,29.99,NNE,17,0.0,0.0,100,0.00,,---,0.00,VWS V14.01,2013-10-17 12:57:00,
2013-10-17 09:02:00,71.9,71.9,29.99,North,7,3.3,4.1,100,0.00,,---,0.00,VWS V14.01,2013-10-17 13:02:00,
2013-10-17 09:07:00,72.8,72.8,29.99,North,4,1.2,1.9,100,0.00,,---,0.00,VWS V14.01,2013-10-17 13:07:00,
2013-10-17 09:12:00,73.0,73.0,29.99,North,4,2.5,3.9,100,0.00,,---,0.00,VWS V14.01,2013-10-17 13:12:00,
2013-10-17 09:17:00,73.0,73.0,29.99,NNW,343,3.2,5.5,100,0.00,,---,0.00,VWS V14.01,2013-10-17 13:17:00,
2013-10-17 09:22:00,73.0,73.0,29.99,North,357,3.9,4.6,100,0.00,,---,0.00,VWS V14.01,2013-10-17 13:22:00,
2013-10-17 09:27:00,73.3,73.3,30.00,NNW,340,2.6,4.7,100,0.00,,---,0.00,VWS V14.01,2013-10-17 13:27:00,
2013-10-17 09:32:00,72.8,72.8,30.00,NW,307,4.6,4.6,100,0.00,,---,0.00,VWS V14.01,2013-10-17 13:32:00,
2013-10-17 09:37:00,73.5,73.5,30.00,NW,311,2.9,5.2,100,0.00,,---,0.00,VWS V14.01,2013-10-17 13:37:00,
2013-10-17 09:42:00,73.5,73.5,30.00,NNW,347,2.9,5.1,100,0.00,,---,0.00,VWS V14.01,2013-10-17 13:42:00,
2013-10-17 09:47:00,73.3,73.3,30.00,North,349,2.9,3.0,100,0.00,,---,0.00,VWS V14.01,2013-10-17 13:47:00,
2013-10-17 09:52:00,73.9,73.9,30.00,NW,304,0.0,0.0,100,0.00,,---,0.00,VWS V14.01,2013-10-17 13:52:00,
2013-10-17 09:57:00,73.4,73.4,30.00,NW,312,0.7,1.3,100,0.00,,---,0.00,VWS V14.01,2013-10-17 13:57:00,
2013-10-17 10:02:00,74.5,74.5,30.00,NNW,335,1.7,3.7,100,0.00,,---,0.00,VWS V14.01,2013-10-17 14:02:00,
2013-10-17 10:07:00,74.4,74.4,30.00,West,263,0.5,1.4,100,0.00,,---,0.00,VWS V14.01,2013-10-17 14:07:00,
2013-10-17 10:12:00,74.5,74.5,30.00,WNW,300,1.6,1.9,100,0.00,,---,0.00,VWS V14.01,2013-10-17 14:12:00,
2013-10-17 10:17:00,74.9,74.9,30.00,WSW,248,0.0,1.0,100,0.00,,---,0.00,VWS V14.01,2013-10-17 14:17:00,
2013-10-17 10:22:00,76.2,76.2,29.99,West,271,0.6,2.2,100,0.00,,---,0.00,VWS V14.01,2013-10-17 14:22:00,
2013-10-17 10:27:00,76.2,75.9,29.99,West,270,2.7,3.8,99,0.00,,---,0.00,VWS V14.01,2013-10-17 14:27:00,
2013-10-17 10:32:00,77.4,76.6,29.99,West,266,4.0,5.7,98,0.00,,---,0.00,VWS V14.01,2013-10-17 14:32:00,
2013-10-17 10:37:00,77.0,75.1,29.99,West,278,2.5,3.5,94,0.00,,---,0.00,VWS V14.01,2013-10-17 14:37:00,
2013-10-17 10:42:00,77.8,75.4,29.99,WSW,245,2.3,2.3,92,0.00,,---,0.00,VWS V14.01,2013-10-17 14:42:00,
2013-10-17 10:47:00,78.9,75.3,29.99,WSW,240,0.7,1.7,89,0.00,,---,0.00,VWS V14.01,2013-10-17 14:47:00,
2013-10-17 10:52:00,78.8,74.1,29.99,NNW,343,4.6,5.4,86,0.00,,---,0.00,VWS V14.01,2013-10-17 14:52:00,
2013-10-17 10:57:00,79.1,72.8,29.99,West,269,3.2,4.2,81,0.00,,---,0.00,VWS V14.01,2013-10-17 14:57:00,
2013-10-17 11:02:00,80.3,72.9,29.99,WSW,248,2.7,3.7,78,0.00,,---,0.00,VWS V14.01,2013-10-17 15:02:00,
2013-10-17 11:07:00,80.5,72.4,29.99,WSW,242,0.0,0.0,76,0.00,,---,0.00,VWS V14.01,2013-10-17 15:07:00,
2013-10-17 11:12:00,81.6,72.6,29.99,SW,228,4.3,6.3,74,0.00,,---,0.00,VWS V14.01,2013-10-17 15:12:00,
2013-10-17 11:17:00,81.4,70.8,29.99,SW,232,1.6,2.2,70,0.00,,---,0.00,VWS V14.01,2013-10-17 15:17:00,
2013-10-17 11:22:00,81.2,70.1,29.99,West,271,2.2,4.2,69,0.00,,---,0.00,VWS V14.01,2013-10-17 15:22:00,
2013-10-17 11:27:00,82.4,70.2,29.99,WSW,250,3.7,5.8,67,0.00,,---,0.00,VWS V14.01,2013-10-17 15:27:00,
2013-10-17 11:32:00,83.2,69.7,29.99,West,259,1.9,3.7,64,0.00,,---,0.00,VWS V14.01,2013-10-17 15:32:00,
2013-10-17 11:37:00,83.1,69.0,29.99,WSW,256,4.0,4.9,63,0.00,,---,0.00,VWS V14.01,2013-10-17 15:37:00,
2013-10-17 11:42:00,83.7,69.3,29.99,SSW,204,2.7,5.0,62,0.00,,---,0.00,VWS V14.01,2013-10-17 15:42:00,
2013-10-17 11:47:00,83.1,68.1,29.99,WSW,257,1.1,2.9,61,0.00,,---,0.00,VWS V14.01,2013-10-17 15:47:00,
2013-10-17 11:52:00,84.5,68.2,29.99,SW,226,4.7,6.6,58,0.00,,---,0.00,VWS V14.01,2013-10-17 15:52:00,
2013-10-17 11:57:00,85.0,68.2,29.98,WSW,246,0.6,1.5,57,0.00,,---,0.00,VWS V14.01,2013-10-17 15:57:00,
2013-10-17 12:02:00,84.2,67.1,29.98,SW,222,3.7,3.7,57,0.00,,---,0.00,VWS V14.01,2013-10-17 16:02:00,
2013-10-17 12:07:00,85.2,67.4,29.98,South,173,0.7,3.0,55,0.00,,---,0.00,VWS V14.01,2013-10-17 16:07:00,
2013-10-17 12:12:00,85.4,67.6,29.98,NW,309,2.4,4.0,55,0.00,,---,0.00,VWS V14.01,2013-10-17 16:12:00,
2013-10-17 12:17:00,85.8,67.7,29.98,NW,326,1.9,2.2,55,0.00,,---,0.00,VWS V14.01,2013-10-17 16:17:00,
2013-10-17 12:22:00,85.8,67.1,29.98,North,349,3.8,5.2,54,0.00,,---,0.00,VWS V14.01,2013-10-17 16:22:00,
2013-10-17 12:27:00,85.3,66.8,29.98,NW,326,3.9,4.2,54,0.00,,---,0.00,VWS V14.01,2013-10-17 16:27:00,
2013-10-17 12:32:00,86.3,67.2,29.97,ENE,75,1.7,3.4,53,0.00,,---,0.00,VWS V14.01,2013-10-17 16:32:00,
2013-10-17 12:37:00,85.4,66.4,29.97,NW,315,3.9,6.8,53,0.00,,---,0.00,VWS V14.01,2013-10-17 16:37:00,
2013-10-17 12:42:00,84.5,65.8,29.97,NW,304,1.1,3.5,54,0.00,,---,0.00,VWS V14.01,2013-10-17 16:42:00,
2013-10-17 12:47:00,84.3,66.5,29.97,WNW,291,4.0,5.4,55,0.00,,---,0.00,VWS V14.01,2013-10-17 16:47:00,
2013-10-17 12:52:00,85.3,66.9,29.97,NNW,335,4.0,4.0,54,0.00,,---,0.00,VWS V14.01,2013-10-17 16:52:00,
2013-10-17 12:57:00,85.2,66.8,29.97,WSW,253,3.7,5.2,54,0.00,,---,0.00,VWS V14.01,2013-10-17 16:57:00,
2013-10-17 13:02:00,85.4,66.4,29.97,West,264,3.2,5.1,53,0.00,,---,0.00,VWS V14.01,2013-10-17 17:02:00,
2013-10-17 13:07:00,85.8,66.3,29.97,West,278,5.3,5.8,52,0.00,,---,0.00,VWS V14.01,2013-10-17 17:07:00,
2013-10-17 13:12:00,86.3,66.8,29.96,NNW,340,5.2,5.2,52,0.00,,---,0.00,VWS V14.01,2013-10-17 17:12:00,
2013-10-17 13:17:00,85.0,65.9,29.96,NE,53,0.0,0.6,53,0.00,,---,0.00,VWS V14.01,2013-10-17 17:17:00,
2013-10-17 13:22:00,84.8,66.3,29.96,NW,322,1.1,2.4,54,0.00,,---,0.00,VWS V14.01,2013-10-17 17:22:00,
2013-10-17 13:27:00,84.4,65.9,29.95,West,267,1.5,3.7,54,0.00,,---,0.00,VWS V14.01,2013-10-17 17:27:00,
2013-10-17 13:32:00,84.3,65.4,29.95,SW,219,0.0,0.0,53,0.00,,---,0.00,VWS V14.01,2013-10-17 17:32:00,
2013-10-17 13:37:00,85.3,66.0,29.95,WSW,248,0.0,0.0,52,0.00,,---,0.00,VWS V14.01,2013-10-17 17:37:00,
2013-10-17 13:42:00,86.4,66.2,29.95,West,259,1.2,2.7,51,0.00,,---,0.00,VWS V14.01,2013-10-17 17:42:00,
2013-10-17 13:47:00,86.8,66.0,29.95,North,4,0.7,3.3,50,0.00,,---,0.00,VWS V14.01,2013-10-17 17:47:00,
2013-10-17 13:52:00,86.9,65.2,29.94,North,359,4.2,5.6,48,0.00,,---,0.00,VWS V14.01,2013-10-17 17:52:00,
2013-10-17 13:57:00,86.2,64.9,29.94,NNW,338,1.2,5.2,49,0.00,,---,0.00,VWS V14.01,2013-10-17 17:57:00,
2013-10-17 14:02:00,86.8,64.8,29.94,West,264,3.6,5.3,48,0.00,,---,0.00,VWS V14.01,2013-10-17 18:02:00,
2013-10-17 14:07:00,86.3,63.3,29.93,NNW,338,2.7,4.2,46,0.00,,---,0.00,VWS V14.01,2013-10-17 18:07:00,
2013-10-17 14:12:00,86.4,63.4,29.93,NNW,333,0.0,0.0,46,0.00,,---,0.00,VWS V14.01,2013-10-17 18:12:00,
2013-10-17 14:17:00,86.6,63.6,29.93,SSW,211,0.7,1.1,46,0.00,,---,0.00,VWS V14.01,2013-10-17 18:17:00,
2013-10-17 14:22:00,86.8,63.9,29.93,South,169,0.0,0.0,46,0.00,,---,0.00,VWS V14.01,2013-10-17 18:22:00,
2013-10-17 14:27:00,86.5,63.1,29.92,SE,146,3.4,3.4,46,0.00,,---,0.00,VWS V14.01,2013-10-17 18:27:00,
2013-10-17 14:32:00,87.4,63.2,29.92,NE,51,1.7,4.7,44,0.00,,---,0.00,VWS V14.01,2013-10-17 18:32:00,
2013-10-17 14:37:00,87.5,63.4,29.92,ENE,59,1.6,2.4,45,0.00,,---,0.00,VWS V14.01,2013-10-17 18:37:00,
2013-10-17 14:42:00,87.3,62.5,29.92,SW,229,3.0,3.7,44,0.00,,---,0.00,VWS V14.01,2013-10-17 18:42:00,
2013-10-17 14:47:00,87.4,62.6,29.92,WSW,250,1.8,2.4,44,0.00,,---,0.00,VWS V14.01,2013-10-17 18:47:00,
2013-10-17 14:52:00,86.9,62.1,29.92,WSW,246,4.7,5.2,44,0.00,,---,0.00,VWS V14.01,2013-10-17 18:52:00,
2013-10-17 14:57:00,89.2,63.6,29.92,SSW,208,3.7,4.2,43,0.00,,---,0.00,VWS V14.01,2013-10-17 18:57:00,
2013-10-17 15:02:00,89.1,63.5,29.92,West,270,2.6,4.1,43,0.00,,---,0.00,VWS V14.01,2013-10-17 19:02:00,
2013-10-17 15:07:00,89.4,63.0,29.92,SW,229,2.2,2.2,42,0.00,,---,0.00,VWS V14.01,2013-10-17 19:07:00,
2013-10-17 15:12:00,88.9,62.5,29.92,NNW,346,0.0,0.0,42,0.00,,---,0.00,VWS V14.01,2013-10-17 19:12:00,
2013-10-17 15:17:00,88.2,62.4,29.92,SW,221,0.8,2.3,42,0.00,,---,0.00,VWS V14.01,2013-10-17 19:17:00,
2013-10-17 15:22:00,89.4,62.3,29.91,SSW,200,1.9,2.5,41,0.00,,---,0.00,VWS V14.01,2013-10-17 19:22:00,
2013-10-17 15:27:00,90.7,62.9,29.91,SSW,194,0.0,1.0,40,0.00,,---,0.00,VWS V14.01,2013-10-17 19:27:00,
2013-10-17 15:31:00,90.6,62.4,29.91,NNW,346,4.0,4.4,39,0.00,,---,0.00,VWS V14.01,2013-10-17 19:31:00,
2013-10-17 15:36:00,89.4,61.2,29.91,NNW,336,4.3,5.3,39,0.00,,---,0.00,VWS V14.01,2013-10-17 19:36:00,
2013-10-17 15:41:00,89.6,62.3,29.91,West,274,1.5,3.7,40,0.00,,---,0.00,VWS V14.01,2013-10-17 19:41:00,
2013-10-17 15:46:00,89.4,63.0,29.91,NW,305,3.5,4.5,42,0.00,,---,0.00,VWS V14.01,2013-10-17 19:46:00,
2013-10-17 15:51:00,89.4,62.6,29.91,WSW,257,0.0,0.0,41,0.00,,---,0.00,VWS V14.01,2013-10-17 19:51:00,
2013-10-17 15:56:00,89.9,62.7,29.91,SSW,204,0.0,0.0,40,0.00,,---,0.00,VWS V14.01,2013-10-17 19:56:00,
2013-10-17 16:01:00,89.9,62.8,29.91,WSW,257,1.6,3.5,41,0.00,,---,0.00,VWS V14.01,2013-10-17 20:01:00,
2013-10-17 16:06:00,90.1,62.0,29.91,WSW,252,2.2,3.9,39,0.00,,---,0.00,VWS V14.01,2013-10-17 20:06:00,
2013-10-17 16:11:00,90.1,63.1,29.90,NNW,333,0.0,1.7,41,0.00,,---,0.00,VWS V14.01,2013-10-17 20:11:00,
2013-10-17 16:16:00,90.0,62.5,29.91,SW,235,0.0,0.0,40,0.00,,---,0.00,VWS V14.01,2013-10-17 20:16:00,
2013-10-17 16:21:00,89.4,62.6,29.90,South,188,0.0,0.0,41,0.00,,---,0.00,VWS V14.01,2013-10-17 20:21:00,
2013-10-17 16:26:00,89.0,63.0,29.91,NNW,346,3.9,6.3,42,0.00,,---,0.00,VWS V14.01,2013-10-17 20:26:00,
2013-10-17 16:31:00,88.1,62.6,29.91,NNW,342,2.8,2.8,43,0.00,,---,0.00,VWS V14.01,2013-10-17 20:31:00,
2013-10-17 16:36:00,87.7,63.4,29.91,NNE,24,2.2,3.2,44,0.00,,---,0.00,VWS V14.01,2013-10-17 20:36:00,
2013-10-17 16:41:00,86.9,62.9,29.91,NNE,20,0.0,0.0,45,0.00,,---,0.00,VWS V14.01,2013-10-17 20:41:00,
2013-10-17 16:46:00,87.5,63.0,29.91,WNW,290,0.0,0.4,44,0.00,,---,0.00,VWS V14.01,2013-10-17 20:46:00,
2013-10-17 16:51:00,88.5,63.8,29.91,WNW,302,0.3,0.3,44,0.00,,---,0.00,VWS V14.01,2013-10-17 20:51:00,
2013-10-17 16:56:00,88.9,63.7,29.91,ESE,107,0.2,0.2,43,0.00,,---,0.00,VWS V14.01,2013-10-17 20:56:00,
2013-10-17 17:01:00,89.4,63.3,29.91,SSE,150,0.0,0.6,42,0.00,,---,0.00,VWS V14.01,2013-10-17 21:01:00,
2013-10-17 17:06:00,89.4,64.1,29.90,SE,134,0.0,0.6,43,0.00,,---,0.00,VWS V14.01,2013-10-17 21:06:00,
2013-10-17 17:11:00,88.7,63.5,29.90,SE,134,0.7,2.3,43,0.00,,---,0.00,VWS V14.01,2013-10-17 21:11:00,
2013-10-17 17:16:00,89.7,63.0,29.91,SSE,150,1.1,2.7,41,0.00,,---,0.00,VWS V14.01,2013-10-17 21:16:00,
2013-10-17 17:21:00,89.9,63.3,29.90,East,97,0.0,3.3,41,0.00,,---,0.00,VWS V14.01,2013-10-17 21:21:00,
2013-10-17 17:26:00,88.8,63.0,29.90,ESE,115,1.4,1.8,42,0.00,,---,0.00,VWS V14.01,2013-10-17 21:26:00,
2013-10-17 17:31:00,90.1,63.5,29.90,ESE,117,1.8,2.7,41,0.00,,---,0.00,VWS V14.01,2013-10-17 21:31:00,
2013-10-17 17:36:00,90.3,64.0,29.90,ENE,72,0.0,0.0,42,0.00,,---,0.00,VWS V14.01,2013-10-17 21:36:00,
2013-10-17 17:41:00,88.8,62.4,29.90,SE,139,1.6,1.6,42,0.00,,---,0.00,VWS V14.01,2013-10-17 21:41:00,
2013-10-17 17:46:00,88.3,63.1,29.90,ESE,107,0.0,0.0,43,0.00,,---,0.00,VWS V14.01,2013-10-17 21:46:00,
2013-10-17 17:51:00,87.8,62.8,29.90,ESE,107,0.0,0.0,43,0.00,,---,0.00,VWS V14.01,2013-10-17 21:51:00,
2013-10-17 17:56:00,87.9,65.1,29.90,NNE,20,0.0,0.0,47,0.00,,---,0.00,VWS V14.01,2013-10-17 21:56:00,
2013-10-17 18:01:00,87.6,65.0,29.91,ESE,107,1.1,4.7,47,0.00,,---,0.00,VWS V14.01,2013-10-17 22:01:00,
2013-10-17 18:06:00,87.5,65.1,29.91,South,180,1.9,1.9,48,0.00,,---,0.00,VWS V14.01,2013-10-17 22:06:00,
2013-10-17 18:11:00,87.2,65.3,29.91,SE,131,0.0,0.4,48,0.00,,---,0.00,VWS V14.01,2013-10-17 22:11:00,
2013-10-17 18:16:00,87.9,66.0,29.91,SSE,166,2.4,3.2,48,0.00,,---,0.00,VWS V14.01,2013-10-17 22:16:00,
2013-10-17 18:21:00,87.0,65.4,29.91,SE,145,0.0,0.0,49,0.00,,---,0.00,VWS V14.01,2013-10-17 22:21:00,
2013-10-17 18:26:00,86.6,65.2,29.91,SE,142,0.0,0.0,49,0.00,,---,0.00,VWS V14.01,2013-10-17 22:26:00,
2013-10-17 18:31:00,86.9,66.0,29.91,SSE,162,1.3,1.4,50,0.00,,---,0.00,VWS V14.01,2013-10-17 22:31:00,
2013-10-17 18:36:00,86.7,66.5,29.91,SE,125,0.0,0.0,51,0.00,,---,0.00,VWS V14.01,2013-10-17 22:36:00,
2013-10-17 18:41:00,85.3,65.3,29.91,SE,125,0.0,0.0,51,0.00,,---,0.00,VWS V14.01,2013-10-17 22:41:00,
2013-10-17 18:46:00,85.1,65.3,29.92,SE,125,0.0,0.0,52,0.00,,---,0.00,VWS V14.01,2013-10-17 22:46:00,
2013-10-17 18:51:00,84.4,65.0,29.92,SE,125,0.0,0.0,52,0.00,,---,0.00,VWS V14.01,2013-10-17 22:51:00,
2013-10-17 18:56:00,85.0,66.3,29.92,WSW,242,0.0,0.0,54,0.00,,---,0.00,VWS V14.01,2013-10-17 22:56:00,
2013-10-17 19:01:00,84.5,66.3,29.92,WSW,243,0.0,0.0,54,0.00,,---,0.00,VWS V14.01,2013-10-17 23:01:00,
2013-10-17 19:06:00,83.2,65.4,29.92,WSW,252,0.8,2.5,55,0.00,,---,0.00,VWS V14.01,2013-10-17 23:06:00,
2013-10-17 19:11:00,83.5,66.1,29.92,NNW,338,0.7,1.1,56,0.00,,---,0.00,VWS V14.01,2013-10-17 23:11:00,
2013-10-17 19:15:00,83.4,66.2,29.92,NNW,338,0.0,0.0,56,0.00,,---,0.00,VWS V14.01,2013-10-17 23:15:00,
2013-10-17 19:20:00,82.4,65.3,29.92,North,354,0.0,0.0,56,0.00,,---,0.00,VWS V14.01,2013-10-17 23:20:00,
2013-10-17 19:25:00,82.8,65.8,29.92,North,354,0.0,0.0,57,0.00,,---,0.00,VWS V14.01,2013-10-17 23:25:00,
2013-10-17 19:30:00,82.4,65.7,29.92,North,354,0.0,0.0,57,0.00,,---,0.00,VWS V14.01,2013-10-17 23:30:00,
2013-10-17 19:35:00,81.6,65.3,29.92,North,354,0.0,0.0,58,0.00,,---,0.00,VWS V14.01,2013-10-17 23:35:00,
2013-10-17 19:40:00,82.1,65.9,29.92,North,354,0.0,0.0,58,0.00,,---,0.00,VWS V14.01,2013-10-17 23:40:00,
2013-10-17 19:45:00,81.1,65.2,29.92,North,354,0.0,0.0,58,0.00,,---,0.00,VWS V14.01,2013-10-17 23:45:00,
2013-10-17 19:50:00,81.5,66.3,29.93,North,354,0.0,0.0,60,0.00,,---,0.00,VWS V14.01,2013-10-17 23:50:00,
2013-10-17 19:55:00,81.8,68.6,29.93,WNW,291,1.5,5.2,64,0.00,,---,0.00,VWS V14.01,2013-10-17 23:55:00,
2013-10-17 20:00:00,81.8,69.4,29.93,ESE,120,3.5,3.9,66,0.00,,---,0.00,VWS V14.01,2013-10-18 00:00:00,
2013-10-17 20:05:00,80.4,68.6,29.92,East,86,0.0,3.7,67,0.00,,---,0.00,VWS V14.01,2013-10-18 00:05:00,
2013-10-17 20:10:00,81.4,70.0,29.92,SE,138,1.2,3.5,68,0.00,,---,0.00,VWS V14.01,2013-10-18 00:10:00,
2013-10-17 20:15:00,80.5,69.5,29.93,ENE,72,2.2,3.9,69,0.00,,---,0.00,VWS V14.01,2013-10-18 00:15:00,
2013-10-17 20:20:00,80.9,70.2,29.93,East,98,0.9,2.7,70,0.00,,---,0.00,VWS V14.01,2013-10-18 00:20:00,
2013-10-17 20:25:00,80.9,70.6,29.93,SSW,202,1.7,2.4,71,0.00,,---,0.00,VWS V14.01,2013-10-18 00:25:00,
2013-10-17 20:30:00,80.8,70.7,29.93,SE,131,3.2,4.8,71,0.00,,---,0.00,VWS V14.01,2013-10-18 00:30:00,
2013-10-17 20:36:00,80.9,70.9,29.93,SE,134,0.0,0.7,72,0.00,,---,0.00,VWS V14.01,2013-10-18 00:36:00,
2013-10-17 20:41:00,80.3,70.7,29.93,ENE,72,1.4,1.9,73,0.00,,---,0.00,VWS V14.01,2013-10-18 00:41:00,
2013-10-17 20:46:00,80.0,70.7,29.94,ENE,68,0.0,1.7,73,0.00,,---,0.00,VWS V14.01,2013-10-18 00:46:00,
2013-10-17 20:51:00,80.5,71.3,29.94,SSE,158,1.2,2.7,74,0.00,,---,0.00,VWS V14.01,2013-10-18 00:51:00,
2013-10-17 20:56:00,80.2,71.2,29.94,ESE,115,4.2,4.4,74,0.00,,---,0.00,VWS V14.01,2013-10-18 00:56:00,
2013-10-17 21:01:00,80.3,71.4,29.94,South,179,1.5,3.8,74,0.00,,---,0.00,VWS V14.01,2013-10-18 01:01:00,
2013-10-17 21:06:00,80.3,71.5,29.94,ESE,103,1.1,6.7,75,0.00,,---,0.00,VWS V14.01,2013-10-18 01:06:00,
2013-10-17 21:11:00,79.0,70.4,29.94,ESE,114,2.1,3.8,75,0.00,,---,0.00,VWS V14.01,2013-10-18 01:11:00,
2013-10-17 21:16:00,80.1,71.5,29.94,ESE,103,0.4,1.2,75,0.00,,---,0.00,VWS V14.01,2013-10-18 01:16:00,
2013-10-17 21:21:00,79.7,71.3,29.94,ESE,120,0.6,3.6,76,0.00,,---,0.00,VWS V14.01,2013-10-18 01:21:00,
2013-10-17 21:26:00,78.9,70.8,29.95,SE,131,0.7,1.7,76,0.00,,---,0.00,VWS V14.01,2013-10-18 01:26:00,
2013-10-17 21:31:00,78.8,70.9,29.95,SE,141,2.5,5.2,77,0.00,,---,0.00,VWS V14.01,2013-10-18 01:31:00,
2013-10-17 21:36:00,79.1,71.3,29.95,South,190,2.7,2.8,77,0.00,,---,0.00,VWS V14.01,2013-10-18 01:36:00,
2013-10-17 21:41:00,79.3,71.7,29.95,South,180,3.4,3.4,78,0.00,,---,0.00,VWS V14.01,2013-10-18 01:41:00,
2013-10-17 21:46:00,78.3,71.0,29.95,SSE,152,0.6,3.2,78,0.00,,---,0.00,VWS V14.01,2013-10-18 01:46:00,
2013-10-17 21:51:00,79.1,71.8,29.95,South,170,2.2,2.9,78,0.00,,---,0.00,VWS V14.01,2013-10-18 01:51:00,
2013-10-17 21:56:00,79.2,72.1,29.95,SSE,163,3.6,3.7,79,0.00,,---,0.00,VWS V14.01,2013-10-18 01:56:00,
2013-10-17 22:01:00,78.9,71.9,29.95,SSE,156,1.4,5.0,79,0.00,,---,0.00,VWS V14.01,2013-10-18 02:01:00,
2013-10-17 22:06:00,78.0,71.3,29.95,SSE,162,2.7,5.5,80,0.00,,---,0.00,VWS V14.01,2013-10-18 02:06:00,
2013-10-17 22:11:00,78.9,72.3,29.95,SSE,153,2.2,4.9,80,0.00,,---,0.00,VWS V14.01,2013-10-18 02:11:00,
2013-10-17 22:16:00,78.7,72.3,29.95,SSE,153,2.2,5.0,81,0.00,,---,0.00,VWS V14.01,2013-10-18 02:16:00,
2013-10-17 22:21:00,78.2,72.0,29.95,SSE,150,1.3,1.8,81,0.00,,---,0.00,VWS V14.01,2013-10-18 02:21:00,
2013-10-17 22:26:00,77.8,71.7,29.95,SSE,166,0.7,0.7,82,0.00,,---,0.00,VWS V14.01,2013-10-18 02:26:00,
2013-10-17 22:31:00,77.1,71.2,29.95,SE,129,0.0,1.4,82,0.00,,---,0.00,VWS V14.01,2013-10-18 02:31:00,
2013-10-17 22:36:00,77.9,72.1,29.95,ESE,120,0.0,0.0,82,0.00,,---,0.00,VWS V14.01,2013-10-18 02:36:00,
2013-10-17 22:41:00,77.9,72.3,29.95,SSE,156,3.5,3.5,83,0.00,,---,0.00,VWS V14.01,2013-10-18 02:41:00,
2013-10-17 22:46:00,77.7,72.3,29.95,SSE,158,3.1,3.1,84,0.00,,---,0.00,VWS V14.01,2013-10-18 02:46:00,
2013-10-17 22:51:00,77.4,72.2,29.95,SSE,159,2.4,2.6,84,0.00,,---,0.00,VWS V14.01,2013-10-18 02:51:00,
2013-10-17 22:56:00,77.2,72.1,29.95,SSE,148,0.9,1.6,84,0.00,,---,0.00,VWS V14.01,2013-10-18 02:56:00,
2013-10-17 23:01:00,76.8,71.9,29.95,SE,127,0.0,0.0,85,0.00,,---,0.00,VWS V14.01,2013-10-18 03:01:00,
2013-10-17 23:06:00,76.5,71.8,29.95,SE,136,0.0,1.0,85,0.00,,---,0.00,VWS V14.01,2013-10-18 03:06:00,
2013-10-17 23:11:00,76.7,72.2,29.95,ESE,105,0.0,0.0,86,0.00,,---,0.00,VWS V14.01,2013-10-18 03:11:00,
2013-10-17 23:16:00,76.7,72.3,29.95,ESE,105,0.0,0.0,86,0.00,,---,0.00,VWS V14.01,2013-10-18 03:16:00,
2013-10-17 23:21:00,76.1,71.9,29.95,ESE,118,0.0,0.0,87,0.00,,---,0.00,VWS V14.01,2013-10-18 03:21:00,
2013-10-17 23:26:00,75.8,71.8,29.95,ESE,118,0.0,0.0,87,0.00,,---,0.00,VWS V14.01,2013-10-18 03:26:00,
2013-10-17 23:31:00,76.4,72.6,29.95,ESE,118,0.0,0.0,88,0.00,,---,0.00,VWS V14.01,2013-10-18 03:31:00,
2013-10-17 23:36:00,76.3,72.7,29.94,SSE,155,0.2,1.0,88,0.00,,---,0.00,VWS V14.01,2013-10-18 03:36:00,
2013-10-17 23:41:00,76.2,72.9,29.95,SE,142,0.9,1.4,89,0.00,,---,0.00,VWS V14.01,2013-10-18 03:41:00,
2013-10-17 23:46:00,75.8,72.6,29.94,SE,145,1.1,2.2,90,0.00,,---,0.00,VWS V14.01,2013-10-18 03:46:00,
2013-10-17 23:51:00,75.4,72.4,29.95,SE,142,1.0,1.6,90,0.00,,---,0.00,VWS V14.01,2013-10-18 03:51:00,
2013-10-17 23:59:00,75.8,73.0,29.94,SE,132,0.0,0.0,91,0.00,,---,0.00,VWS V14.01,2013-10-18 03:59:00,